createdAt,value
2018-05-18T00:00:58.948Z,4.27
2018-05-18T00:03:28.060Z,4.60
2018-05-18T00:05:56.388Z,4.73
2018-05-18T00:08:24.700Z,4.67
2018-05-18T00:10:53.800Z,4.30
2018-05-18T00:13:22.124Z,5.07
2018-05-18T00:15:50.432Z,5.33
2018-05-18T00:18:18.833Z,4.77
2018-05-18T00:20:47.280Z,4.70
2018-05-18T00:23:15.590Z,4.80
2018-05-18T00:25:43.890Z,4.27
2018-05-18T00:28:12.213Z,5.03
2018-05-18T00:30:40.537Z,4.60
2018-05-18T00:33:08.854Z,4.47
2018-05-18T00:35:37.160Z,4.53
2018-05-18T00:38:05.475Z,4.13
2018-05-18T00:40:33.793Z,4.70
2018-05-18T00:43:02.890Z,4.23
2018-05-18T00:45:31.959Z,5.07
2018-05-18T00:48:00.995Z,4.70
2018-05-18T00:50:29.311Z,4.27
2018-05-18T00:52:57.610Z,5.17
2018-05-18T00:55:37.178Z,4.70
2018-05-18T00:58:05.489Z,4.93
2018-05-18T01:00:33.816Z,5.07
2018-05-18T01:03:02.113Z,4.50
2018-05-18T01:05:30.095Z,5.03
2018-05-18T01:10:37.673Z,4.53
2018-05-18T01:13:05.987Z,5.13
2018-05-18T01:15:34.311Z,6.07
2018-05-18T01:18:02.603Z,5.17
2018-05-18T01:20:30.931Z,4.87
2018-05-18T01:22:59.261Z,5.17
2018-05-18T01:25:27.554Z,4.47
2018-05-18T01:27:55.524Z,3.93
2018-05-18T01:33:24.050Z,4.53
2018-05-18T01:35:52.360Z,4.27
2018-05-18T01:38:21.672Z,4.90
2018-05-18T01:40:50.015Z,5.20
2018-05-18T01:43:18.313Z,4.40
2018-05-18T01:45:46.631Z,5.10
2018-05-18T01:48:14.937Z,5.03
2018-05-18T01:50:43.258Z,4.43
2018-05-18T01:53:11.756Z,4.43
2018-05-18T02:04:21.160Z,5.20
2018-05-18T02:06:49.463Z,4.83
2018-05-18T02:09:17.787Z,4.10
2018-05-18T02:11:46.100Z,4.57
2018-05-18T02:14:14.411Z,4.23
2018-05-18T02:16:42.745Z,4.90
2018-05-18T02:19:11.816Z,4.70
2018-05-18T02:21:40.132Z,4.97
2018-05-18T02:24:08.652Z,4.50
2018-05-18T02:26:36.956Z,4.87
2018-05-18T02:29:05.312Z,4.70
2018-05-18T02:31:33.629Z,5.13
2018-05-18T02:34:01.935Z,4.60
2018-05-18T02:36:31.041Z,5.03
2018-05-18T02:38:59.335Z,4.80
2018-05-18T02:41:27.658Z,3.83
2018-05-18T02:46:48.676Z,4.37
2018-05-18T02:49:16.997Z,4.53
2018-05-18T02:51:45.390Z,4.07
2018-05-18T02:54:13.843Z,4.20
2018-05-18T02:56:42.164Z,4.73
2018-05-18T02:59:10.236Z,4.20
2018-05-18T03:01:38.715Z,4.00
2018-05-18T03:04:07.032Z,3.83
2018-05-18T03:12:21.148Z,3.90
2018-05-18T03:14:49.469Z,4.13
2018-05-18T03:17:17.759Z,3.70
2018-05-18T03:19:46.073Z,4.03
2018-05-18T03:22:14.416Z,4.60
2018-05-18T03:24:42.716Z,4.83
2018-05-18T03:27:11.033Z,4.63
2018-05-18T03:29:39.153Z,4.07
2018-05-18T03:43:40.941Z,4.00
2018-05-18T03:46:09.253Z,4.67
2018-05-18T03:48:38.343Z,4.40
2018-05-18T03:51:06.646Z,4.67
2018-05-18T03:53:34.953Z,4.70
2018-05-18T03:56:03.255Z,5.03
2018-05-18T03:58:32.367Z,4.23
2018-05-18T04:01:00.665Z,4.47
2018-05-18T04:03:46.398Z,4.67
2018-05-18T04:06:26.008Z,3.97
2018-05-18T04:08:53.754Z,4.27
2018-05-18T04:11:22.060Z,4.37
2018-05-18T04:13:50.368Z,4.77
2018-05-18T04:16:18.661Z,4.10
2018-05-18T04:18:46.972Z,4.23
2018-05-18T04:21:15.297Z,3.93
2018-05-18T04:23:43.618Z,4.57
2018-05-18T04:26:12.140Z,3.77
2018-05-18T04:28:40.457Z,4.77
2018-05-18T04:31:10.287Z,4.40
2018-05-18T04:33:38.598Z,4.07
2018-05-18T04:36:06.934Z,3.40
2018-05-18T04:38:35.243Z,4.23
2018-05-18T04:41:04.322Z,4.03
2018-05-18T04:43:32.636Z,3.90
2018-05-18T04:46:00.951Z,3.70
2018-05-18T04:48:33.491Z,3.80
2018-05-18T04:51:01.968Z,3.90
2018-05-18T04:53:30.435Z,4.77
2018-05-18T04:55:58.763Z,3.50
2018-05-18T04:58:27.086Z,3.33
2018-05-18T05:00:55.378Z,4.13
2018-05-18T05:03:23.691Z,4.20
2018-05-18T05:05:52.040Z,4.23
2018-05-18T05:08:20.353Z,3.53
2018-05-18T05:19:31.386Z,4.93
2018-05-18T05:21:59.900Z,5.37
2018-05-18T05:24:28.227Z,4.87
2018-05-18T05:26:56.539Z,5.17
2018-05-18T05:29:24.874Z,4.60
2018-05-18T05:31:53.211Z,5.53
2018-05-18T05:34:21.529Z,4.63
2018-05-18T05:36:50.640Z,4.87
2018-05-18T05:39:18.982Z,4.80
2018-05-18T05:41:47.305Z,4.33
2018-05-18T05:44:16.415Z,5.63
2018-05-18T05:46:44.741Z,5.17
2018-05-18T05:49:13.139Z,4.70
2018-05-18T05:51:41.449Z,4.53
2018-05-18T05:54:10.512Z,4.37
2018-05-18T05:56:38.830Z,4.40
2018-05-18T05:59:07.905Z,4.53
2018-05-18T06:07:23.445Z,5.53
2018-05-18T06:09:51.782Z,5.10
2018-05-18T06:12:20.239Z,5.20
2018-05-18T06:14:48.468Z,4.90
2018-05-18T06:17:16.771Z,5.07
2018-05-18T06:19:45.097Z,5.67
2018-05-18T06:22:13.411Z,5.43
2018-05-18T06:24:41.768Z,4.30
2018-05-18T06:44:34.287Z,4.53
2018-05-18T06:47:02.622Z,4.30
2018-05-18T06:49:30.930Z,4.10
2018-05-18T06:51:59.310Z,3.40
2018-05-18T06:54:27.641Z,4.07
2018-05-18T06:56:55.965Z,4.03
2018-05-18T06:59:24.262Z,4.70
2018-05-18T07:01:52.628Z,3.60
2018-05-18T07:04:20.950Z,3.57
2018-05-18T07:06:52.888Z,3.83
2018-05-18T07:09:22.007Z,4.60
2018-05-18T07:11:50.351Z,4.70
2018-05-18T07:14:18.706Z,4.33
2018-05-18T07:16:47.056Z,4.93
2018-05-18T07:19:15.402Z,4.80
2018-05-18T07:21:43.743Z,3.60
2018-05-18T07:24:12.073Z,5.13
2018-05-18T07:26:40.417Z,3.90
2018-05-18T07:29:08.770Z,4.23
2018-05-18T07:31:37.906Z,4.10
2018-05-18T07:34:06.242Z,5.20
2018-05-18T07:36:34.606Z,4.70
2018-05-18T07:39:02.953Z,4.10
2018-05-18T07:41:31.275Z,4.40
2018-05-18T07:43:59.712Z,4.83
2018-05-18T07:46:28.153Z,5.30
2018-05-18T07:48:56.484Z,5.10
2018-05-18T07:51:24.812Z,4.70
2018-05-18T07:53:53.144Z,4.43
2018-05-18T07:56:22.286Z,5.13
2018-05-18T07:58:50.597Z,5.10
2018-05-18T08:01:18.957Z,5.37
2018-05-18T08:03:47.297Z,4.90
2018-05-18T08:06:15.652Z,5.03
2018-05-18T08:08:44.008Z,4.43
2018-05-18T08:14:09.021Z,4.83
2018-05-18T08:16:37.368Z,5.67
2018-05-18T08:19:05.676Z,5.50
2018-05-18T08:21:34.123Z,4.37
2018-05-18T08:24:02.551Z,5.33
2018-05-18T08:26:30.881Z,4.63
2018-05-18T08:29:11.157Z,4.83
2018-05-18T08:31:39.483Z,5.10
2018-05-18T08:34:11.178Z,4.63
2018-05-18T08:36:40.265Z,5.03
2018-05-18T08:39:08.615Z,4.30
2018-05-18T08:41:37.138Z,5.17
2018-05-18T08:44:06.239Z,4.80
2018-05-18T08:46:34.588Z,4.60
2018-05-18T08:49:02.896Z,5.10
2018-05-18T08:51:31.240Z,4.53
2018-05-18T08:53:59.563Z,4.27
2018-05-18T08:56:28.663Z,4.23
2018-05-18T08:58:57.770Z,5.70
2018-05-18T09:01:26.128Z,4.80
2018-05-18T09:03:54.242Z,4.97
2018-05-18T09:06:22.638Z,4.20
2018-05-18T09:08:51.019Z,3.93
2018-05-18T09:11:19.507Z,4.23
2018-05-18T09:13:47.856Z,4.60
2018-05-18T09:16:16.190Z,4.23
2018-05-18T09:18:44.507Z,5.37
2018-05-18T09:21:13.617Z,4.70
2018-05-18T09:23:41.945Z,4.57
2018-05-18T09:26:10.334Z,5.27
2018-05-18T09:28:38.655Z,4.53
2018-05-18T09:31:07.020Z,4.20
2018-05-18T09:33:36.729Z,4.80
2018-05-18T09:36:05.030Z,4.70
2018-05-18T09:38:33.364Z,4.27
2018-05-18T09:41:01.698Z,4.37
2018-05-18T09:43:30.030Z,5.03
2018-05-18T09:45:58.355Z,4.83
2018-05-18T09:48:26.671Z,5.47
2018-05-18T09:50:54.969Z,4.57
2018-05-18T09:53:23.345Z,4.87
2018-05-18T09:55:52.447Z,4.87
2018-05-18T09:58:20.791Z,5.30
2018-05-18T10:00:49.142Z,5.23
2018-05-18T10:03:17.628Z,4.20
2018-05-18T10:05:45.611Z,4.57
2018-05-18T10:08:13.948Z,4.77
2018-05-18T10:10:43.051Z,4.43
2018-05-18T10:13:12.793Z,4.57
2018-05-18T10:15:41.122Z,4.10
2018-05-18T10:18:09.462Z,5.07
2018-05-18T10:20:37.797Z,5.83
2018-05-18T10:23:06.111Z,5.17
2018-05-18T10:25:34.424Z,4.50
2018-05-18T10:28:02.763Z,4.37
2018-05-18T10:30:31.466Z,4.47
2018-05-18T10:32:59.798Z,4.83
2018-05-18T10:38:22.920Z,4.70
2018-05-18T10:40:51.265Z,4.63
2018-05-18T10:43:19.594Z,5.70
2018-05-18T10:45:47.895Z,4.73
2018-05-18T10:48:16.226Z,4.67
2018-05-18T10:50:45.299Z,4.30
2018-05-18T10:53:13.600Z,5.07
2018-05-18T10:55:41.923Z,4.90
2018-05-18T10:58:10.245Z,4.50
2018-05-18T11:00:38.567Z,4.77
2018-05-18T11:03:06.879Z,4.93
2018-05-18T11:05:35.212Z,4.70
2018-05-18T11:08:04.304Z,5.13
2018-05-18T11:10:33.390Z,5.70
2018-05-18T11:13:01.716Z,4.87
2018-05-18T11:15:29.875Z,4.50
2018-05-18T11:18:02.807Z,4.07
2018-05-18T11:20:31.181Z,4.70
2018-05-18T11:22:59.528Z,4.33
2018-05-18T11:25:28.622Z,3.90
2018-05-18T11:27:56.939Z,4.30
2018-05-18T11:30:25.305Z,4.40
2018-05-18T11:32:53.623Z,4.17
2018-05-18T11:35:21.947Z,3.63
2018-05-18T11:37:50.292Z,3.90
2018-05-18T11:40:18.846Z,4.27
2018-05-18T11:42:47.166Z,4.07
2018-05-18T11:45:15.469Z,4.00
2018-05-18T11:47:43.801Z,3.70
2018-05-18T11:50:11.778Z,4.30
2018-05-18T11:52:39.764Z,3.83
2018-05-18T11:55:08.104Z,4.17
2018-05-18T11:57:37.224Z,3.90
2018-05-18T12:00:05.241Z,3.30
2018-05-18T12:02:33.563Z,3.77
2018-05-18T12:05:01.879Z,4.37
2018-05-18T12:07:30.218Z,3.23
2018-05-18T12:09:58.748Z,3.77
2018-05-18T12:12:27.074Z,3.67
2018-05-18T12:14:55.402Z,3.80
2018-05-18T12:17:23.721Z,3.67
2018-05-18T12:19:52.063Z,3.73
2018-05-18T12:22:20.391Z,3.13
2018-05-18T12:24:48.709Z,3.60
2018-05-18T12:27:17.017Z,3.77
2018-05-18T12:29:45.349Z,3.60
2018-05-18T12:32:13.679Z,3.20
2018-05-18T12:34:42.026Z,3.50
2018-05-18T12:37:10.354Z,3.50
2018-05-18T12:39:38.728Z,3.80
2018-05-18T12:42:07.131Z,3.10
2018-05-18T12:44:35.495Z,2.77
2018-05-18T12:47:03.975Z,3.90
2018-05-18T12:49:32.316Z,4.10
2018-05-18T12:52:00.646Z,3.97
2018-05-18T12:54:28.945Z,4.37
2018-05-18T12:56:58.083Z,4.33
2018-05-18T12:59:26.542Z,3.50
2018-05-18T13:01:55.015Z,4.03
2018-05-18T13:04:23.347Z,3.80
2018-05-18T13:06:51.675Z,2.83
2018-05-18T13:09:20.003Z,3.00
2018-05-18T13:11:48.356Z,3.77
2018-05-18T13:14:16.696Z,3.70
2018-05-18T13:16:45.033Z,3.50
2018-05-18T13:19:13.353Z,2.70
2018-05-18T13:21:41.689Z,3.30
2018-05-18T13:24:09.738Z,3.90
2018-05-18T13:26:38.155Z,3.40
2018-05-18T13:29:06.157Z,3.73
2018-05-18T13:31:34.685Z,3.70
2018-05-18T13:34:03.012Z,3.80
2018-05-18T13:51:33.842Z,3.60
2018-05-18T13:54:02.161Z,3.13
2018-05-18T13:56:30.148Z,3.93
2018-05-18T13:58:59.336Z,3.10
2018-05-18T14:01:27.668Z,2.80
2018-05-18T14:03:55.677Z,3.00
2018-05-18T14:06:23.986Z,3.43
2018-05-18T14:08:53.072Z,3.77
2018-05-18T14:11:21.394Z,3.33
2018-05-18T14:22:28.207Z,3.83
2018-05-18T14:24:56.546Z,3.97
2018-05-18T14:27:24.866Z,3.30
2018-05-18T14:29:53.197Z,2.93
2018-05-18T14:32:21.533Z,4.00
2018-05-18T14:34:50.620Z,3.73
2018-05-18T14:37:19.038Z,3.80
2018-05-18T14:39:47.406Z,3.80
2018-05-18T14:42:22.288Z,4.30
2018-05-18T14:44:50.632Z,3.47
2018-05-18T14:47:18.975Z,3.77
2018-05-18T14:49:47.290Z,3.23
2018-05-18T14:52:15.651Z,4.00
2018-05-18T14:54:43.975Z,4.07
2018-05-18T14:57:13.992Z,4.10
2018-05-18T14:59:42.317Z,3.27
2018-05-18T15:02:11.450Z,3.50
2018-05-18T15:07:36.616Z,3.50
2018-05-18T15:10:04.955Z,3.23
2018-05-18T15:12:33.280Z,3.00
2018-05-18T15:15:01.597Z,3.67
2018-05-18T15:17:29.914Z,3.13
2018-05-18T15:19:58.246Z,4.20
2018-05-18T15:22:26.558Z,4.97
2018-05-18T15:24:54.955Z,3.67
2018-05-18T15:27:23.408Z,3.60
2018-05-18T15:29:51.732Z,3.37
2018-05-18T15:32:20.061Z,2.70
2018-05-18T15:34:49.160Z,3.40
2018-05-18T15:37:17.552Z,3.93
2018-05-18T15:39:46.025Z,3.20
2018-05-18T15:42:14.360Z,3.27
2018-05-18T15:44:42.712Z,3.87
2018-05-18T15:47:11.081Z,4.17
2018-05-18T15:49:39.461Z,4.27
2018-05-18T15:52:07.795Z,3.63
2018-05-18T15:54:36.108Z,3.63
2018-05-18T15:57:04.468Z,4.00
2018-05-18T15:59:32.798Z,4.30
2018-05-18T16:02:01.132Z,3.80
2018-05-18T16:04:29.463Z,4.83
2018-05-18T16:06:57.797Z,3.93
2018-05-18T16:09:26.137Z,3.87
2018-05-18T16:11:54.498Z,4.10
2018-05-18T16:14:22.827Z,3.30
2018-05-18T16:16:51.171Z,3.80
2018-05-18T16:19:19.481Z,3.97
2018-05-18T16:21:47.803Z,3.53
2018-05-18T16:24:16.128Z,3.40
2018-05-18T16:26:45.215Z,3.77
2018-05-18T16:29:13.566Z,3.23
2018-05-18T16:31:41.942Z,3.23
2018-05-18T16:34:10.292Z,3.47
2018-05-18T16:36:40.113Z,3.57
2018-05-18T16:39:08.445Z,3.40
2018-05-18T16:41:36.782Z,3.80
2018-05-18T16:44:05.096Z,3.97
2018-05-18T16:46:33.196Z,3.33
2018-05-18T16:49:01.508Z,3.57
2018-05-18T16:51:29.813Z,3.70
2018-05-18T16:53:58.177Z,3.30
2018-05-18T16:56:26.487Z,3.10
2018-05-18T16:58:56.508Z,2.80
2018-05-18T17:01:24.584Z,2.40
2018-05-18T17:03:52.909Z,2.60
2018-05-18T17:06:21.429Z,2.43
2018-05-18T17:08:49.754Z,2.77
2018-05-18T17:11:18.076Z,2.93
2018-05-18T17:13:46.413Z,2.60
2018-05-18T17:16:14.735Z,3.13
2018-05-18T17:18:43.032Z,2.83
2018-05-18T17:21:17.727Z,3.23
2018-05-18T17:23:46.045Z,3.83
2018-05-18T17:26:14.380Z,2.37
2018-05-18T17:28:42.696Z,3.17
2018-05-18T17:31:11.806Z,2.77
2018-05-18T17:33:40.123Z,4.17
2018-05-18T17:36:08.494Z,3.47
2018-05-18T17:38:36.816Z,2.93
2018-05-18T17:41:05.163Z,3.67
2018-05-18T17:43:34.444Z,3.50
2018-05-18T17:46:02.783Z,3.67
2018-05-18T17:48:31.095Z,3.57
2018-05-18T17:50:59.409Z,3.07
2018-05-18T17:53:27.776Z,3.37
2018-05-18T17:55:56.145Z,3.40
2018-05-18T17:58:24.455Z,3.70
2018-05-18T18:00:52.776Z,3.67
2018-05-18T18:03:21.116Z,2.97
2018-05-18T18:05:49.432Z,3.07
2018-05-18T18:08:17.784Z,3.30
2018-05-18T18:10:46.106Z,4.03
2018-05-18T18:13:14.451Z,4.20
2018-05-18T18:15:42.777Z,4.20
2018-05-18T18:18:11.125Z,4.10
2018-05-18T18:20:39.459Z,3.40
2018-05-18T18:23:08.564Z,3.63
2018-05-18T18:25:36.881Z,4.23
2018-05-18T18:28:06.610Z,4.33
2018-05-18T18:30:34.939Z,3.87
2018-05-18T18:33:04.062Z,3.90
2018-05-18T18:35:32.417Z,3.80
2018-05-18T18:38:00.757Z,4.40
2018-05-18T18:40:29.085Z,3.70
2018-05-18T18:42:58.174Z,3.73
2018-05-18T18:45:26.501Z,4.07
2018-05-18T18:47:54.850Z,3.90
2018-05-18T18:50:25.418Z,3.70
2018-05-18T18:52:53.766Z,3.80
2018-05-18T18:55:22.096Z,4.10
2018-05-18T18:57:50.402Z,3.93
2018-05-18T19:00:18.741Z,4.10
2018-05-18T19:02:47.063Z,4.07
2018-05-18T19:05:15.408Z,3.77
2018-05-18T19:07:43.740Z,3.80
2018-05-18T19:10:12.078Z,3.57
2018-05-18T19:12:40.407Z,3.80
2018-05-18T19:15:09.494Z,3.07
2018-05-18T19:17:37.815Z,2.77
2018-05-18T19:20:06.207Z,3.10
2018-05-18T19:22:34.520Z,4.00
2018-05-18T19:25:02.872Z,4.27
2018-05-18T19:30:24.315Z,3.20
2018-05-18T19:32:52.656Z,3.57
2018-05-18T19:35:21.011Z,3.23
2018-05-18T19:37:49.338Z,3.40
2018-05-18T19:40:17.669Z,4.30
2018-05-18T19:42:46.142Z,3.50
2018-05-18T19:45:14.516Z,3.97
2018-05-18T19:47:42.836Z,3.40
2018-05-18T19:50:11.171Z,4.57
2018-05-18T19:52:39.506Z,3.60
2018-05-18T19:55:07.815Z,3.33
2018-05-18T19:57:36.173Z,4.03
2018-05-18T20:00:05.345Z,3.13
2018-05-18T20:02:33.684Z,2.83
2018-05-18T20:05:02.014Z,3.93
2018-05-18T20:07:30.350Z,3.40
2018-05-18T20:09:58.704Z,3.97
2018-05-18T20:12:27.278Z,4.37
2018-05-18T20:14:55.626Z,4.00
2018-05-18T20:17:24.729Z,3.80
2018-05-18T20:19:53.081Z,3.63
2018-05-18T20:22:21.586Z,3.70
2018-05-18T20:24:49.930Z,3.67
2018-05-18T20:27:18.274Z,3.63
2018-05-18T20:29:46.842Z,3.63
2018-05-18T20:32:15.218Z,4.07
2018-05-18T20:34:43.628Z,3.87
2018-05-18T20:37:11.990Z,4.10
2018-05-18T20:39:40.330Z,4.20
2018-05-18T20:42:08.657Z,3.33
2018-05-18T20:44:37.063Z,4.23
2018-05-18T20:47:05.402Z,3.20
2018-05-18T20:49:33.715Z,3.70
2018-05-18T20:52:02.082Z,3.53
2018-05-18T20:54:30.424Z,3.50
2018-05-18T20:57:05.809Z,3.27
2018-05-18T20:59:34.195Z,2.77
2018-05-18T21:02:02.545Z,3.40
2018-05-18T21:04:31.633Z,3.30
2018-05-18T21:07:00.009Z,3.37
2018-05-18T21:09:28.441Z,3.73
2018-05-18T21:11:56.749Z,3.40
2018-05-18T21:14:25.126Z,3.70
2018-05-18T21:16:53.480Z,3.23
2018-05-18T21:19:21.891Z,3.80
2018-05-18T21:21:50.239Z,3.73
2018-05-18T21:24:18.560Z,2.57
2018-05-18T21:26:46.894Z,4.00
2018-05-18T21:29:16.190Z,3.73
2018-05-18T21:31:44.525Z,3.73
2018-05-18T21:34:12.838Z,4.07
2018-05-18T21:36:41.152Z,3.90
2018-05-18T21:39:09.471Z,3.90
2018-05-18T21:41:41.018Z,3.80
2018-05-18T21:44:18.536Z,4.17
2018-05-18T21:46:50.035Z,4.73
2018-05-18T21:49:19.125Z,4.53
2018-05-18T21:51:50.565Z,4.00
2018-05-18T21:54:18.893Z,4.03
2018-05-18T21:56:47.266Z,4.27
2018-05-18T21:59:15.578Z,4.27
2018-05-18T22:01:50.057Z,3.83
2018-05-18T22:04:18.371Z,3.93
2018-05-18T22:06:46.683Z,4.07
2018-05-18T22:09:15.075Z,4.53
2018-05-18T22:11:43.408Z,3.97
2018-05-18T22:14:11.800Z,3.77
2018-05-18T22:16:40.251Z,3.97
2018-05-18T22:19:08.559Z,3.70
2018-05-18T22:21:36.997Z,4.63
2018-05-18T22:24:06.098Z,4.47
2018-05-18T22:26:34.392Z,5.50
2018-05-18T22:29:02.706Z,5.27
2018-05-18T22:31:31.015Z,5.00
2018-05-18T22:33:59.380Z,5.43
2018-05-18T22:36:27.685Z,6.17
2018-05-18T22:38:56.023Z,6.73
2018-05-18T22:41:24.367Z,8.07
2018-05-18T22:43:52.683Z,8.63
2018-05-18T22:46:21.002Z,9.10
2018-05-18T22:48:49.340Z,9.60
2018-05-18T22:51:18.424Z,7.70
2018-05-18T22:53:46.731Z,6.63
2018-05-18T22:56:15.056Z,6.43
2018-05-18T22:58:43.366Z,7.27
2018-05-18T23:01:11.824Z,8.67
2018-05-18T23:03:40.146Z,10.67
2018-05-18T23:06:08.448Z,9.77
2018-05-18T23:08:36.795Z,10.67
2018-05-18T23:11:04.889Z,7.47
2018-05-18T23:13:33.987Z,6.17
2018-05-18T23:16:03.067Z,6.63
2018-05-18T23:18:31.386Z,7.07
2018-05-18T23:20:59.716Z,5.60
2018-05-18T23:23:31.535Z,4.50
2018-05-18T23:25:59.860Z,5.23
2018-05-18T23:28:28.934Z,5.50
2018-05-18T23:30:57.276Z,6.13
2018-05-18T23:33:25.572Z,7.13
2018-05-18T23:35:54.879Z,6.63
2018-05-18T23:38:23.215Z,5.40
2018-05-18T23:40:51.554Z,5.83
2018-05-18T23:43:19.887Z,6.30
2018-05-18T23:45:54.048Z,4.90
2018-05-18T23:48:22.352Z,5.43
2018-05-18T23:50:50.674Z,6.13
2018-05-18T23:53:19.001Z,6.30
2018-05-18T23:55:47.324Z,6.73
2018-05-18T23:58:15.635Z,6.07
